Strona główna
METAR-TAF:

METAR-TAF

Lotnisko :

Coatesville, Pensylwania, Stany Zjednoczone

Szerokość geograficzna: 39-58-44N, Długość geograficzna: 075-51-56W, wysokość: 201 m

Aktualna obserwacja pogody

Raport powstał 27 minut temu, godzina 10:35 UTC
Wiatr 7 kt od wschód
Temperatura 1°C
Wilgotność 93%
Ciśnienie 1025 hPa
Widzialność: 14.5 km
bezchmurnie

METAR: KMQS 181035Z AUTO 08007KT 9SM CLR 01/00 A3028 RMK AO2

czas: 06:02 (11:02 UTC)


TAF: brakujący

Obserwacja i prognoza pogody dla ponad 4000 lotnisk (raport METAR i TAF).

Dostępne stacje oznaczono żółtymi i czerwonymi punktami na mapie.

Najedź kursorem aby zobaczyć nazwę stacji.

Kliknij aby zobaczyć obserwacje i prognozy pogody.

Aby zmienić mapę: kliknij na zielony przycisk z czarnym krzyżykiem, aby powiększyć; na zielony przycisk z myślnikiem, aby pomniejszyć; na zielone strzałki, aby przejść do map sąsiednich.


METAR-TAF: